Time,TemperatureF,DewpointF,PressureIn,WindDirection,WindDirectionDegrees,WindSpeedMPH,WindSpeedGustMPH,Humidity,HourlyPrecipIn,Conditions,Clouds,dailyrainin,SoftwareType,DateUTC
2013-10-06 00:02:00,38.0,24.0,-100.00,North,-999,-999.0,-999.0,56,-99.99,,,-99.99,,2013-10-06 07:02:00,
2013-10-06 00:52:00,36.0,27.0,-100.00,North,-999,-999.0,-999.0,69,-99.99,,,-99.99,,2013-10-06 07:52:00,
2013-10-06 01:22:00,36.0,23.0,-100.00,North,-999,-999.0,-999.0,58,-99.99,,,-99.99,,2013-10-06 08:22:00,
2013-10-06 01:42:00,35.0,-99.9,-100.00,North,-999,-999.0,-999.0,71,-99.99,,,-99.99,,2013-10-06 08:42:00,
2013-10-06 01:52:00,35.0,27.0,-100.00,North,-999,-999.0,-999.0,71,-99.99,,,-99.99,,2013-10-06 08:52:00,
2013-10-06 02:22:00,35.0,20.0,-100.00,North,-999,-999.0,-999.0,54,-99.99,,,-99.99,,2013-10-06 09:22:00,
2013-10-06 02:33:00,35.0,20.0,-100.00,North,-999,-999.0,-999.0,54,-99.99,,,-99.99,,2013-10-06 09:33:00,
2013-10-06 03:13:00,32.0,22.0,-100.00,North,-999,-999.0,-999.0,66,-99.99,,,-99.99,,2013-10-06 10:13:00,
2013-10-06 03:53:00,33.0,20.0,-100.00,North,-999,-999.0,-999.0,59,-99.99,,,-99.99,,2013-10-06 10:53:00,
2013-10-06 04:02:00,33.0,20.0,-100.00,North,-999,-999.0,-999.0,59,-99.99,,,-99.99,,2013-10-06 11:02:00,
2013-10-06 04:11:00,33.0,20.0,-100.00,North,-999,-999.0,-999.0,59,-99.99,,,-99.99,,2013-10-06 11:11:00,
2013-10-06 05:42:00,32.0,20.0,-100.00,North,-999,-999.0,-999.0,61,-99.99,,,-99.99,,2013-10-06 12:42:00,
2013-10-06 06:11:00,32.0,20.0,-100.00,North,-999,-999.0,-999.0,59,-99.99,,,-99.99,,2013-10-06 13:11:00,
2013-10-06 06:21:00,32.0,20.0,-100.00,North,-999,-999.0,-999.0,59,-99.99,,,-99.99,,2013-10-06 13:21:00,
2013-10-06 06:42:00,32.0,22.0,-100.00,North,-999,-999.0,-999.0,66,-99.99,,,-99.99,,2013-10-06 13:42:00,
2013-10-06 07:11:00,32.0,19.0,-100.00,North,-999,-999.0,-999.0,58,-99.99,,,-99.99,,2013-10-06 14:11:00,
2013-10-06 07:22:00,32.0,20.0,-100.00,North,-999,-999.0,-999.0,60,-99.99,,,-99.99,,2013-10-06 14:22:00,
2013-10-06 07:42:00,31.0,21.0,-100.00,North,-999,-999.0,-999.0,64,-99.99,,,-99.99,,2013-10-06 14:42:00,
2013-10-06 07:52:00,30.0,19.0,-100.00,North,-999,-999.0,-999.0,62,-99.99,,,-99.99,,2013-10-06 14:52:00,
2013-10-06 08:22:00,31.0,23.0,-100.00,North,-999,-999.0,-999.0,58,-99.99,,,-99.99,,2013-10-06 15:22:00,
2013-10-06 09:23:00,35.0,29.0,-100.00,North,-999,-999.0,-999.0,78,-99.99,,,-99.99,,2013-10-06 16:23:00,
2013-10-06 09:33:00,35.0,29.0,-100.00,North,-999,-999.0,-999.0,78,-99.99,,,-99.99,,2013-10-06 16:33:00,
2013-10-06 09:42:00,35.0,29.0,-100.00,North,-999,-999.0,-999.0,78,-99.99,,,-99.99,,2013-10-06 16:42:00,
2013-10-06 13:42:00,-999.0,-99.9,-100.00,WNW,290,2.0,-999.0,-999,-99.99,,,-99.99,,2013-10-06 20:42:00,
2013-10-06 14:12:00,60.0,-99.9,-100.00,North,-999,-999.0,-999.0,65,-99.99,,,-99.99,,2013-10-06 21:12:00,
2013-10-06 15:24:00,-999.0,-99.9,-100.00,West,280,1.0,-999.0,-999,-99.99,,,-99.99,,2013-10-06 22:24:00,
2013-10-06 16:34:00,-999.0,-99.9,-100.00,West,280,1.0,-999.0,-999,-99.99,,,-99.99,,2013-10-06 23:34:00,
2013-10-06 16:42:00,-999.0,-99.9,-100.00,West,280,1.0,-999.0,-999,-99.99,,,-99.99,,2013-10-06 23:42:00,
2013-10-06 16:53:00,-999.0,-99.9,-100.00,West,280,1.0,-999.0,-999,-99.99,,,-99.99,,2013-10-06 23:53:00,
2013-10-06 20:34:00,-999.0,-99.9,-100.00,North,350,0.0,-999.0,-999,-99.99,,,-99.99,,2013-10-07 03:34:00,
2013-10-06 21:53:00,45.0,28.0,-100.00,North,-999,-999.0,-999.0,51,-99.99,,,-99.99,,2013-10-07 04:53:00,
2013-10-06 22:03:00,45.0,28.0,-100.00,North,-999,-999.0,-999.0,51,-99.99,,,-99.99,,2013-10-07 05:03:00,
2013-10-06 22:23:00,42.0,-99.9,-100.00,NNE,20,0.0,-999.0,56,-99.99,,,-99.99,,2013-10-07 05:23:00,
2013-10-06 22:43:00,41.0,28.0,-100.00,North,-999,-999.0,-999.0,60,-99.99,,,-99.99,,2013-10-07 05:43:00,